createdAt,value
2024-03-26T00:01:13.707Z,3.06
2024-03-26T00:03:41.251Z,3.03
2024-03-26T00:06:08.698Z,2.97
2024-03-26T00:08:36.153Z,2.89
2024-03-26T00:11:03.820Z,2.83
2024-03-26T00:13:31.687Z,2.78
2024-03-26T00:15:59.247Z,2.77
2024-03-26T00:18:26.629Z,2.72
2024-03-26T00:20:54.047Z,2.67
2024-03-26T00:23:21.500Z,2.66
2024-03-26T00:25:50.289Z,2.64
2024-03-26T00:28:17.752Z,2.65
2024-03-26T00:30:45.300Z,2.64
2024-03-26T00:33:12.959Z,2.62
2024-03-26T00:35:40.441Z,2.59
2024-03-26T00:38:08.627Z,2.58
2024-03-26T00:40:36.042Z,2.54
2024-03-26T00:43:03.515Z,2.52
2024-03-26T00:45:31.100Z,2.51
2024-03-26T00:47:58.613Z,2.51
2024-03-26T00:50:26.179Z,2.51
2024-03-26T00:52:53.524Z,2.51
2024-03-26T00:55:20.945Z,2.54
2024-03-26T00:57:48.389Z,2.54
2024-03-26T01:00:16.425Z,2.53
2024-03-26T01:02:43.991Z,2.50
2024-03-26T01:05:11.723Z,2.47
2024-03-26T01:07:39.179Z,2.48
2024-03-26T01:10:07.737Z,2.45
2024-03-26T01:12:35.421Z,2.43
2024-03-26T01:15:03.181Z,2.40
2024-03-26T01:17:30.654Z,2.37
2024-03-26T01:19:58.202Z,2.36
2024-03-26T01:22:25.649Z,2.39
2024-03-26T01:24:53.208Z,2.42
2024-03-26T01:27:20.766Z,2.43
2024-03-26T01:29:48.222Z,2.48
2024-03-26T01:32:15.678Z,2.53
2024-03-26T01:34:43.438Z,2.56
2024-03-26T01:37:10.997Z,2.57
2024-03-26T01:39:38.453Z,2.58
2024-03-26T01:42:06.009Z,2.53
2024-03-26T01:44:34.180Z,2.44
2024-03-26T01:47:01.634Z,2.40
2024-03-26T01:49:31.097Z,2.35
2024-03-26T01:51:58.593Z,2.32
2024-03-26T01:54:26.151Z,2.32
2024-03-26T01:56:53.710Z,2.32
2024-03-26T01:59:21.299Z,2.31
2024-03-26T02:01:48.720Z,2.30
2024-03-26T02:04:16.482Z,2.30
2024-03-26T02:06:44.558Z,2.28
2024-03-26T02:09:12.012Z,2.27
2024-03-26T02:11:41.417Z,2.28
2024-03-26T02:14:08.864Z,2.29
2024-03-26T02:16:36.523Z,2.24
2024-03-26T02:19:03.977Z,2.25
2024-03-26T02:21:31.947Z,2.29
2024-03-26T02:23:59.503Z,2.29
2024-03-26T02:26:27.060Z,2.30
2024-03-26T02:28:57.695Z,2.28
2024-03-26T02:31:25.262Z,2.26
2024-03-26T02:33:52.713Z,2.28
2024-03-26T02:36:20.262Z,2.32
2024-03-26T02:38:47.878Z,2.31
2024-03-26T02:41:15.389Z,2.31
2024-03-26T02:43:43.240Z,2.31
2024-03-26T02:46:10.695Z,2.31
2024-03-26T02:48:38.149Z,2.32
2024-03-26T02:51:05.604Z,2.33
2024-03-26T02:53:33.470Z,2.34
2024-03-26T02:56:00.943Z,2.34
2024-03-26T02:58:28.587Z,2.36
2024-03-26T03:01:15.803Z,2.34
2024-03-26T03:03:43.263Z,2.36
2024-03-26T03:06:10.819Z,2.36
2024-03-26T03:08:38.679Z,2.34
2024-03-26T03:11:06.441Z,2.30
2024-03-26T03:13:33.900Z,2.29
2024-03-26T03:16:01.370Z,2.27
2024-03-26T03:18:28.910Z,2.24
2024-03-26T03:20:56.451Z,2.20
2024-03-26T03:23:23.891Z,2.16
2024-03-26T03:25:57.754Z,2.17
2024-03-26T03:28:25.293Z,2.17
2024-03-26T03:30:53.252Z,2.18
2024-03-26T03:33:20.812Z,2.18
2024-03-26T03:35:51.503Z,2.19
2024-03-26T03:38:18.999Z,2.19
2024-03-26T03:40:46.448Z,2.19
2024-03-26T03:43:14.318Z,2.17
2024-03-26T03:45:41.878Z,2.13
2024-03-26T03:48:10.158Z,2.12
2024-03-26T03:50:37.626Z,2.11
2024-03-26T03:53:05.373Z,2.06
2024-03-26T03:55:32.820Z,2.05
2024-03-26T03:58:00.277Z,1.99
2024-03-26T04:00:27.745Z,1.91
2024-03-26T04:02:55.197Z,1.90
2024-03-26T04:05:22.746Z,1.90
2024-03-26T04:07:50.205Z,1.90
2024-03-26T04:10:17.856Z,1.92
2024-03-26T04:12:45.310Z,1.92
2024-03-26T04:15:12.872Z,1.86
2024-03-26T04:17:40.430Z,1.94
2024-03-26T04:20:08.710Z,1.97
2024-03-26T04:22:36.159Z,1.97
2024-03-26T04:25:03.728Z,1.97
2024-03-26T04:27:31.183Z,1.99
2024-03-26T04:29:58.627Z,2.00
2024-03-26T04:32:26.396Z,2.02
2024-03-26T04:34:54.054Z,2.03
2024-03-26T04:37:23.467Z,2.08
2024-03-26T04:39:52.331Z,2.12
2024-03-26T04:42:20.719Z,2.11
2024-03-26T04:44:48.598Z,2.13
2024-03-26T04:47:16.038Z,2.15
2024-03-26T04:49:43.902Z,2.17
2024-03-26T04:52:11.456Z,2.16
2024-03-26T04:54:39.020Z,2.15
2024-03-26T04:57:06.500Z,2.14
2024-03-26T04:59:34.029Z,2.16
2024-03-26T05:02:01.482Z,2.20
2024-03-26T05:04:29.055Z,2.24
2024-03-26T05:06:56.494Z,2.30
2024-03-26T05:09:23.949Z,2.36
2024-03-26T05:11:52.043Z,2.43
2024-03-26T05:14:19.679Z,2.46
2024-03-26T05:16:47.444Z,2.49
2024-03-26T05:19:15.053Z,2.51
2024-03-26T05:21:42.420Z,2.51
2024-03-26T05:24:09.808Z,2.55
2024-03-26T05:26:37.263Z,2.61
2024-03-26T05:29:04.815Z,2.65
2024-03-26T05:31:32.280Z,2.72
2024-03-26T05:33:59.936Z,2.80
2024-03-26T05:36:28.619Z,2.88
2024-03-26T05:38:56.183Z,2.98
2024-03-26T05:41:23.662Z,3.09
2024-03-26T05:43:54.280Z,3.20
2024-03-26T05:46:21.817Z,3.31
2024-03-26T05:48:49.376Z,3.42
2024-03-26T05:51:16.831Z,3.53
2024-03-26T05:53:44.287Z,3.64
2024-03-26T05:56:12.081Z,3.75
2024-03-26T05:58:39.474Z,3.79
2024-03-26T06:01:06.942Z,3.82
2024-03-26T06:03:34.521Z,3.89
2024-03-26T06:06:02.197Z,3.95
2024-03-26T06:08:29.598Z,4.03
2024-03-26T06:10:57.099Z,4.10
2024-03-26T06:13:24.754Z,4.18
2024-03-26T06:15:52.204Z,4.20
2024-03-26T06:18:19.656Z,4.22
2024-03-26T06:20:47.525Z,4.28
2024-03-26T06:23:14.981Z,4.29
2024-03-26T06:25:43.049Z,4.31
2024-03-26T06:28:10.568Z,4.33
2024-03-26T06:30:38.790Z,4.34
2024-03-26T06:33:06.239Z,4.37
2024-03-26T06:35:33.690Z,4.38
2024-03-26T06:38:01.250Z,4.40
2024-03-26T06:40:28.806Z,4.45
2024-03-26T06:42:56.265Z,4.53
2024-03-26T06:45:23.923Z,4.61
2024-03-26T06:47:52.525Z,4.71
2024-03-26T06:50:21.095Z,4.78
2024-03-26T06:52:49.063Z,4.89
2024-03-26T06:55:17.453Z,5.03
2024-03-26T06:57:45.300Z,5.19
2024-03-26T07:00:18.459Z,5.33
2024-03-26T07:02:52.079Z,5.48
2024-03-26T07:05:20.265Z,5.59
2024-03-26T07:07:47.867Z,5.70
2024-03-26T07:10:15.667Z,5.81
2024-03-26T07:12:43.652Z,5.91
2024-03-26T07:15:12.031Z,6.01
2024-03-26T07:17:39.795Z,6.13
2024-03-26T07:20:10.642Z,6.26
2024-03-26T07:22:41.357Z,6.36
2024-03-26T07:25:10.137Z,6.47
2024-03-26T07:31:58.027Z,6.73
2024-03-26T07:34:25.666Z,6.83
2024-03-26T07:36:53.891Z,6.94
2024-03-26T07:39:21.459Z,7.04
2024-03-26T07:41:49.014Z,7.13
2024-03-26T07:44:19.472Z,7.21
2024-03-26T07:46:50.088Z,7.29
2024-03-26T07:49:18.245Z,7.36
2024-03-26T07:51:46.446Z,7.42
2024-03-26T07:54:14.117Z,7.50
2024-03-26T07:56:41.946Z,7.61
2024-03-26T07:59:29.224Z,7.65
2024-03-26T08:01:56.808Z,7.70
2024-03-26T08:04:24.444Z,7.75
2024-03-26T08:06:52.515Z,7.82
2024-03-26T08:09:20.113Z,7.89
2024-03-26T08:11:47.794Z,7.92
2024-03-26T08:14:15.495Z,7.96
2024-03-26T08:16:43.153Z,8.03
2024-03-26T08:19:11.121Z,8.10
2024-03-26T08:21:38.680Z,8.17
2024-03-26T08:24:06.547Z,8.27
2024-03-26T08:26:34.923Z,8.35
2024-03-26T08:29:02.517Z,8.41
2024-03-26T08:31:30.691Z,8.45
2024-03-26T08:33:58.315Z,8.51
2024-03-26T08:36:25.971Z,8.54
2024-03-26T08:38:54.256Z,8.57
2024-03-26T08:41:22.118Z,8.61
2024-03-26T08:43:52.733Z,8.72
2024-03-26T08:46:20.458Z,8.76
2024-03-26T08:48:48.602Z,8.77
2024-03-26T08:51:16.057Z,8.82
2024-03-26T08:53:43.520Z,8.89
2024-03-26T08:56:19.102Z,8.95
2024-03-26T08:58:53.351Z,8.93
2024-03-26T09:01:21.014Z,8.92
2024-03-26T09:03:48.568Z,8.98
2024-03-26T09:06:16.839Z,9.03
2024-03-26T09:08:44.426Z,9.07
2024-03-26T09:11:12.366Z,9.13
2024-03-26T09:13:41.664Z,9.22
2024-03-26T09:16:09.442Z,9.31
2024-03-26T09:18:36.994Z,9.38
2024-03-26T09:21:05.271Z,9.41
2024-03-26T09:23:32.826Z,9.48
2024-03-26T09:26:00.412Z,9.54
2024-03-26T09:28:29.673Z,9.59
2024-03-26T09:30:57.163Z,9.67
2024-03-26T09:33:24.823Z,9.68
2024-03-26T09:35:53.305Z,9.76
2024-03-26T09:38:32.166Z,9.80
2024-03-26T09:41:04.244Z,9.86
2024-03-26T09:43:32.175Z,9.80
2024-03-26T09:45:59.772Z,9.91
2024-03-26T09:48:28.479Z,10.01
2024-03-26T09:50:56.011Z,10.06
2024-03-26T09:53:23.754Z,10.10
2024-03-26T09:55:51.965Z,10.11
2024-03-26T09:58:19.580Z,10.15
2024-03-26T10:00:53.245Z,10.24
2024-03-26T10:03:21.608Z,10.26
2024-03-26T10:05:49.221Z,10.34
2024-03-26T10:08:16.915Z,10.34
2024-03-26T10:10:44.576Z,10.48
2024-03-26T10:13:13.161Z,10.59
2024-03-26T10:15:41.084Z,10.68
2024-03-26T10:18:09.296Z,10.74
2024-03-26T10:20:38.391Z,10.82
2024-03-26T10:23:06.874Z,10.91
2024-03-26T10:25:35.309Z,10.98
2024-03-26T10:28:03.505Z,11.01
2024-03-26T10:30:31.185Z,11.02
2024-03-26T10:33:00.125Z,11.05
2024-03-26T10:35:31.160Z,11.08
2024-03-26T10:38:06.777Z,11.19
2024-03-26T10:40:40.507Z,11.29
2024-03-26T10:43:10.642Z,11.34
2024-03-26T10:45:49.523Z,11.33
2024-03-26T10:48:30.843Z,11.25
2024-03-26T10:51:00.134Z,11.11
2024-03-26T10:53:30.925Z,10.99
2024-03-26T10:55:59.218Z,10.99
2024-03-26T10:58:27.272Z,11.05
2024-03-26T11:00:54.805Z,11.12
2024-03-26T11:03:22.336Z,11.15
2024-03-26T11:05:49.873Z,11.15
2024-03-26T11:08:20.325Z,11.22
2024-03-26T11:11:01.537Z,11.28
2024-03-26T11:13:29.614Z,11.29
2024-03-26T11:15:57.176Z,11.21
2024-03-26T11:18:32.712Z,11.17
2024-03-26T11:21:04.960Z,11.20
2024-03-26T11:23:52.865Z,11.23
2024-03-26T11:26:24.849Z,11.28
2024-03-26T11:28:52.343Z,11.39
2024-03-26T11:31:20.462Z,11.47
2024-03-26T11:33:54.224Z,11.54
2024-03-26T11:36:21.911Z,11.59
2024-03-26T11:38:49.622Z,11.62
2024-03-26T11:41:17.197Z,11.67
2024-03-26T11:43:44.675Z,11.76
2024-03-26T11:46:14.151Z,11.84
2024-03-26T11:48:41.853Z,11.91
2024-03-26T11:51:09.483Z,11.91
2024-03-26T11:53:40.137Z,11.94
2024-03-26T11:56:07.981Z,11.98
2024-03-26T11:58:38.006Z,12.02
2024-03-26T12:01:06.985Z,12.01
2024-03-26T12:03:37.219Z,11.95
2024-03-26T12:06:06.042Z,12.01
2024-03-26T12:08:33.610Z,12.04
2024-03-26T12:11:02.042Z,11.99
2024-03-26T12:13:29.601Z,11.86
2024-03-26T12:16:00.708Z,11.78
2024-03-26T12:18:28.250Z,11.77
2024-03-26T12:20:57.389Z,11.79
2024-03-26T12:23:26.580Z,11.85
2024-03-26T12:25:56.659Z,11.90
2024-03-26T12:28:24.471Z,11.96
2024-03-26T12:30:52.955Z,11.99
2024-03-26T12:33:20.819Z,11.96
2024-03-26T12:35:48.580Z,11.95
2024-03-26T12:38:16.084Z,11.98
2024-03-26T12:40:43.639Z,11.97
2024-03-26T12:43:11.182Z,12.01
2024-03-26T12:45:38.812Z,12.03
2024-03-26T12:48:07.855Z,12.07
2024-03-26T12:50:35.581Z,12.08
2024-03-26T12:53:03.231Z,12.04
2024-03-26T12:55:30.898Z,11.96
2024-03-26T13:09:24.777Z,12.27
2024-03-26T13:11:53.469Z,12.33
2024-03-26T13:14:21.134Z,12.26
2024-03-26T13:16:48.691Z,12.18
2024-03-26T13:19:16.249Z,12.09
2024-03-26T13:21:46.532Z,12.07
2024-03-26T13:24:14.132Z,12.07
2024-03-26T13:26:41.713Z,12.19
2024-03-26T13:29:09.562Z,12.22
2024-03-26T13:31:37.639Z,12.21
2024-03-26T13:34:05.508Z,12.20
2024-03-26T13:36:33.562Z,12.19
2024-03-26T13:39:01.645Z,12.21
2024-03-26T13:41:29.297Z,12.24
2024-03-26T13:43:56.989Z,12.28
2024-03-26T13:46:24.623Z,12.28
2024-03-26T13:48:52.195Z,12.24
2024-03-26T13:51:19.959Z,12.25
2024-03-26T13:53:47.629Z,12.22
2024-03-26T13:56:15.265Z,12.16
2024-03-26T13:58:42.824Z,12.09
2024-03-26T14:01:10.488Z,12.01
2024-03-26T14:03:38.040Z,11.92
2024-03-26T14:06:05.713Z,11.89
2024-03-26T14:08:34.182Z,11.91
2024-03-26T14:11:02.378Z,11.90
2024-03-26T14:13:30.343Z,11.88
2024-03-26T14:15:57.887Z,11.86
2024-03-26T14:18:25.343Z,11.82
2024-03-26T14:20:52.879Z,11.81
2024-03-26T14:23:20.882Z,11.81
2024-03-26T14:25:49.856Z,11.79
2024-03-26T14:28:17.570Z,11.76
2024-03-26T14:30:45.063Z,11.75
2024-03-26T14:33:12.691Z,11.75
2024-03-26T14:35:40.429Z,11.77
2024-03-26T14:38:08.173Z,11.76
2024-03-26T14:40:35.825Z,11.67
2024-03-26T14:43:03.493Z,11.61
2024-03-26T14:45:32.171Z,11.56
2024-03-26T14:48:00.545Z,11.52
2024-03-26T14:50:28.729Z,11.54
2024-03-26T14:52:56.686Z,11.55
2024-03-26T14:55:24.864Z,11.53
2024-03-26T14:57:52.434Z,11.49
2024-03-26T15:00:20.625Z,11.43
2024-03-26T15:02:49.835Z,11.42
2024-03-26T15:05:20.357Z,11.37
2024-03-26T15:07:52.660Z,11.35
2024-03-26T15:10:20.280Z,11.34
2024-03-26T15:12:47.945Z,11.31
2024-03-26T15:15:16.513Z,11.27
2024-03-26T15:17:59.231Z,11.17
2024-03-26T15:20:27.077Z,11.12
2024-03-26T15:22:54.682Z,11.07
2024-03-26T15:25:23.314Z,11.06
2024-03-26T15:28:09.637Z,11.05
2024-03-26T15:30:55.822Z,11.02
2024-03-26T15:33:23.678Z,10.90
2024-03-26T15:35:51.427Z,10.92
2024-03-26T15:38:21.651Z,11.06
2024-03-26T15:40:50.139Z,11.25
2024-03-26T15:43:18.730Z,11.41
2024-03-26T15:45:48.110Z,11.58
2024-03-26T15:48:17.120Z,11.74
2024-03-26T15:50:44.763Z,11.90
2024-03-26T15:53:12.293Z,12.02
2024-03-26T15:55:40.096Z,12.07
2024-03-26T15:58:07.643Z,12.12
2024-03-26T16:00:35.724Z,12.14
2024-03-26T16:03:03.431Z,12.11
2024-03-26T16:05:31.548Z,12.07
2024-03-26T16:07:59.145Z,12.07
2024-03-26T16:12:58.496Z,11.94
2024-03-26T16:15:26.086Z,11.82
2024-03-26T16:17:54.165Z,11.65
2024-03-26T16:20:21.642Z,11.40
2024-03-26T16:22:49.176Z,11.15
2024-03-26T16:25:16.752Z,10.91
2024-03-26T16:27:45.793Z,10.70
2024-03-26T16:30:13.641Z,10.49
2024-03-26T16:32:41.254Z,10.31
2024-03-26T16:35:09.725Z,10.11
2024-03-26T16:37:37.174Z,9.93
2024-03-26T16:40:07.916Z,9.80
2024-03-26T16:42:35.879Z,9.66
2024-03-26T16:45:04.093Z,9.55
2024-03-26T16:47:31.710Z,9.43
2024-03-26T16:49:59.302Z,9.31
2024-03-26T16:52:27.354Z,9.17
2024-03-26T16:54:55.015Z,9.04
2024-03-26T16:57:22.560Z,8.94
2024-03-26T16:59:50.116Z,8.86
2024-03-26T17:02:17.983Z,8.74
2024-03-26T17:04:47.287Z,8.62
2024-03-26T17:07:15.270Z,8.55
2024-03-26T17:09:42.735Z,8.47
2024-03-26T17:12:10.333Z,8.36
2024-03-26T17:14:38.256Z,8.24
2024-03-26T17:17:13.443Z,8.19
2024-03-26T17:19:42.179Z,8.12
2024-03-26T17:22:10.561Z,8.03
2024-03-26T17:24:37.955Z,7.93
2024-03-26T17:27:05.644Z,7.90
2024-03-26T17:29:33.592Z,7.87
2024-03-26T17:32:01.266Z,7.82
2024-03-26T17:34:29.038Z,7.79
2024-03-26T17:36:56.800Z,7.74
2024-03-26T17:39:25.216Z,7.68
2024-03-26T17:41:52.838Z,7.63
2024-03-26T17:44:20.716Z,7.56
2024-03-26T17:46:49.080Z,7.51
2024-03-26T17:49:16.843Z,7.46
2024-03-26T17:51:44.521Z,7.39
2024-03-26T17:54:12.276Z,7.35
2024-03-26T17:56:39.825Z,7.26
2024-03-26T17:59:07.689Z,7.21
2024-03-26T18:01:35.890Z,7.15
2024-03-26T18:04:03.423Z,7.08
2024-03-26T18:06:30.899Z,7.02
2024-03-26T18:08:58.746Z,6.94
2024-03-26T18:11:26.401Z,6.87
2024-03-26T18:13:53.956Z,6.79
2024-03-26T18:16:21.419Z,6.72
2024-03-26T18:18:49.690Z,6.65
2024-03-26T18:21:17.450Z,6.58
2024-03-26T18:23:45.044Z,6.51
2024-03-26T18:26:12.824Z,6.46
2024-03-26T18:28:41.192Z,6.39
2024-03-26T18:31:10.769Z,6.36
2024-03-26T18:33:38.499Z,6.33
2024-03-26T18:36:06.387Z,6.29
2024-03-26T18:38:34.977Z,6.26
2024-03-26T18:41:06.780Z,6.24
2024-03-26T18:43:38.684Z,6.22
2024-03-26T18:46:12.776Z,6.24
2024-03-26T18:48:40.517Z,6.22
2024-03-26T18:51:08.125Z,6.20
2024-03-26T18:53:37.084Z,6.19
2024-03-26T18:56:12.762Z,6.17
2024-03-26T18:58:41.032Z,6.13
2024-03-26T19:01:13.197Z,6.10
2024-03-26T19:03:41.062Z,6.08
2024-03-26T19:06:09.233Z,6.05
2024-03-26T19:08:36.896Z,6.01
2024-03-26T19:11:05.067Z,5.95
2024-03-26T19:13:33.236Z,5.88
2024-03-26T19:16:02.232Z,5.79
2024-03-26T19:18:32.653Z,5.68
2024-03-26T19:21:01.748Z,5.59
2024-03-26T19:23:32.232Z,5.53
2024-03-26T19:26:05.938Z,5.50
2024-03-26T19:28:33.845Z,5.49
2024-03-26T19:31:04.176Z,5.48
2024-03-26T19:33:31.826Z,5.46
2024-03-26T19:36:07.067Z,5.44
2024-03-26T19:38:35.134Z,5.42
2024-03-26T19:41:03.508Z,5.37
2024-03-26T19:43:32.100Z,5.31
2024-03-26T19:46:04.947Z,5.29
2024-03-26T19:48:32.865Z,5.24
2024-03-26T19:51:01.006Z,5.17
2024-03-26T19:53:28.980Z,5.08
2024-03-26T19:55:58.896Z,5.04
2024-03-26T19:58:26.426Z,5.01
2024-03-26T20:01:03.864Z,4.98
2024-03-26T20:03:31.440Z,4.98
2024-03-26T20:06:00.666Z,4.97
2024-03-26T20:08:28.565Z,4.92
2024-03-26T20:10:56.837Z,4.93
2024-03-26T20:13:25.210Z,4.92
2024-03-26T20:15:53.079Z,4.92
2024-03-26T20:18:20.746Z,4.93
2024-03-26T20:20:57.816Z,4.89
2024-03-26T20:23:26.295Z,4.81
2024-03-26T20:26:08.472Z,4.81
2024-03-26T20:28:36.371Z,4.77
2024-03-26T20:31:12.828Z,4.74
2024-03-26T20:33:40.648Z,4.61
2024-03-26T20:36:08.658Z,4.56
2024-03-26T20:38:36.322Z,4.53
2024-03-26T20:41:05.172Z,4.50
2024-03-26T20:43:33.379Z,4.45
2024-03-26T20:46:02.165Z,4.41
2024-03-26T20:48:30.163Z,4.32
2024-03-26T20:50:58.413Z,4.25
2024-03-26T20:53:26.792Z,4.19
2024-03-26T20:55:54.344Z,4.22
2024-03-26T20:58:21.902Z,4.23
2024-03-26T21:00:49.460Z,4.26
2024-03-26T21:03:17.139Z,4.27
2024-03-26T21:05:44.781Z,4.30
2024-03-26T21:08:12.347Z,4.31
2024-03-26T21:10:39.941Z,4.30
2024-03-26T21:13:07.730Z,4.34
2024-03-26T21:15:35.222Z,4.35
2024-03-26T21:18:11.590Z,4.38
2024-03-26T21:20:47.431Z,4.36
2024-03-26T21:23:14.987Z,4.35
2024-03-26T21:25:42.647Z,4.35
2024-03-26T21:28:10.214Z,4.29
2024-03-26T21:30:37.843Z,4.28
2024-03-26T21:33:08.803Z,4.31
2024-03-26T21:35:39.433Z,4.30
2024-03-26T21:38:06.988Z,4.27
2024-03-26T21:40:34.631Z,4.19
2024-03-26T21:43:03.026Z,4.17
2024-03-26T21:45:30.536Z,4.16
2024-03-26T21:47:58.243Z,4.17
2024-03-26T21:50:25.907Z,4.13
2024-03-26T21:52:53.464Z,4.11
2024-03-26T21:55:21.027Z,4.10
2024-03-26T21:57:49.193Z,4.11
2024-03-26T22:00:18.472Z,4.11
2024-03-26T22:02:48.200Z,4.13
2024-03-26T22:05:15.862Z,4.15
2024-03-26T22:07:43.539Z,4.15
2024-03-26T22:10:11.091Z,4.15
2024-03-26T22:12:38.639Z,4.16
2024-03-26T22:15:07.015Z,4.17
2024-03-26T22:17:34.488Z,4.19
2024-03-26T22:20:03.767Z,4.20
2024-03-26T22:22:31.222Z,4.21
2024-03-26T22:24:58.797Z,4.21
2024-03-26T22:27:26.354Z,4.21
2024-03-26T22:29:53.892Z,4.20
2024-03-26T22:32:21.322Z,4.18
2024-03-26T22:34:48.764Z,4.17
2024-03-26T22:37:16.261Z,4.16
2024-03-26T22:39:43.715Z,4.15
2024-03-26T22:42:11.174Z,4.14
2024-03-26T22:44:39.244Z,4.13
2024-03-26T22:47:07.616Z,4.11
2024-03-26T22:49:35.072Z,4.08
2024-03-26T22:52:02.536Z,4.06
2024-03-26T22:54:30.188Z,4.05
2024-03-26T22:56:57.748Z,4.03
2024-03-26T22:59:25.406Z,4.01
2024-03-26T23:01:53.171Z,3.98
2024-03-26T23:04:20.625Z,3.98
2024-03-26T23:06:48.077Z,3.96
2024-03-26T23:09:15.540Z,3.96
2024-03-26T23:11:42.989Z,3.93
2024-03-26T23:14:10.656Z,3.91
2024-03-26T23:16:38.103Z,3.89
2024-03-26T23:19:09.281Z,3.87
2024-03-26T23:21:37.027Z,3.86
2024-03-26T23:24:05.498Z,3.85
2024-03-26T23:26:32.948Z,3.86
2024-03-26T23:29:00.511Z,3.87
2024-03-26T23:31:28.469Z,3.86
2024-03-26T23:33:56.026Z,3.85
2024-03-26T23:36:23.490Z,3.84
2024-03-26T23:38:50.941Z,3.82
2024-03-26T23:41:18.367Z,3.77
2024-03-26T23:43:45.851Z,3.72
2024-03-26T23:46:13.264Z,3.69
2024-03-26T23:48:40.760Z,3.67
2024-03-26T23:51:09.550Z,3.66
2024-03-26T23:53:37.104Z,3.66
2024-03-26T23:56:05.459Z,3.65
2024-03-26T23:58:33.143Z,3.65
